AirNav   TITAN Aviation Fuels
 
 477 users online  

02ME Nadeau's Airfield
Acton, Maine, USA

GOING TO ACTON?


FAA INFORMATION EFFECTIVE 02 DECEMBER 2021

Location

FAA Identifier: 02ME
Lat/Long: 43-32-14.2800N 070-55-45.7200W
43-32.238000N 070-55.762000W
43.5373000,-70.9293667
(estimated)
Elevation: 700 ft. / 213 m (estimated)
Variation: 16W (1995)
From city: 2 miles SE of ACTON, ME
Time zone: UTC -5 (UTC -4 during Daylight Saving Time)
Zip code: 04001

Airport Operations

Airport use: Private use. Permission required prior to landing
Activation date: 05/1999
Control tower: no
ARTCC: BOSTON CENTER
FSS: BANGOR FLIGHT SERVICE STATION
Attendance: UNATNDD
Wind indicator: yes
Segmented circle: no

Airport Communications

WX AWOS-3PT at SFM (13 nm SE): 120.025 (207-324-1958)
WX ASOS at DAW (15 nm S): 135.275 (603-332-7814)

Nearby radio navigation aids

VOR radial/distance  VOR name  Freq  Var
ENEr313/15.3KENNEBUNK VOR/DME117.1017W
CONr071/34.0CONCORD VOR/DME112.9015W

 
NDB name  Hdg/Dist  Freq  Var  ID
ROLLINS003/19.526016WESG . ... --.

Airport Services

Runway Information

Runway 14/32

Dimensions: 2400 x 60 ft. / 732 x 18 m
Surface: turf, in good condition
RUNWAY 14  RUNWAY 32
Traffic pattern: leftright
Obstructions: 100 ft. trees30 ft. trees

Airport Ownership and Management from official FAA records

Ownership: Privately-owned
Owner: OLD ACTON AIRFIELD
P.O. BOX 901
ACTON, ME 04001
Phone 978-251-1789
Manager: JOHN R. NADEAU, PRESIDENT
P.O. BOX 901
ACTON, ME 04001
Phone 781-504-3143
MCNADE@AOL.COM

Airport Operational Statistics

Aircraft based on the field: 1
Single engine airplanes: 1
    

Additional Remarks

CELL TWR APRXLY 1000 FT FM THR RWY 32 600 FT NORTH OF EXTDD CNTRLN 190 FT AGL.
FOR CD CTC PORTLAND APCH AT 207-874-7320, WHEN APCH CLSD CTC BOSTON ARTCC AT 603-879-6859.

Instrument Procedures

There are no published instrument procedures at 02ME.

Some nearby airports with instrument procedures:

KSFM - Sanford Seacoast Regional Airport (13 nm SE)
KDAW - Skyhaven Airport (15 nm S)
B19 - Biddeford Municipal Airport (20 nm E)
KLCI - Laconia Municipal Airport (21 nm W)
3B4 - Littlebrook Air Park (25 nm S)
 
Loc | Ops | Rwys | IFR | FBO | Links
Com | Nav | Svcs | Stats | Notes
Area around 02ME (Nadeau's Airfield)
 
Road maps at: MapQuest Bing Google
 
Aerial photo
No photo
 
Sectional chart

 
Airport distance calculator
Flying to Nadeau's Airfield? Find the distance to fly.

From to 02ME

Sunrise and sunset
Times for 07-Dec-2021
 Local
(UTC-5)
 Zulu
(UTC)
Morning civil twilight06:3211:32
Sunrise07:0412:04
Sunset16:0621:06
Evening civil twilight16:3921:39

Current date and time
Zulu (UTC)  07-Dec-2021 07:15:14
Local (UTC-5)  07-Dec-2021 02:15:14
 
METAR
KSFM 
13nm SE 
070656Z AUTO 27018G30KT 10SM CLR 04/M05 A2968 RMK AO2 PK WND 26030/0653 SLP055 T00391050
KDAW 
15nm S 
070651Z AUTO 28011G23KT 220V310 10SM CLR 04/M06 A2969 RMK AO2 PK WND 29029/0558 SLP054 T00391056
KLCI 
21nm W 
070656Z AUTO 25014G17KT 10SM CLR 03/M05 A2970 RMK AO2 PK WND 25027/0600 SLP063 T00281050
TAF
KPWM 
28nm E 
070537Z 0706/0806 27015G25KT P6SM SCT090 FM071400 29012G25KT P6SM SCT250 FM080000 29004KT P6SM SCT100
KPSM 
29nm S 
070537Z 0706/0806 27015G25KT P6SM SCT080 FM071400 29012G25KT P6SM SCT250 FM080000 29004KT P6SM SCT100
KCON 
32nm SW 
070537Z 0706/0806 27012G25KT P6SM FEW090 FM072300 26004KT P6SM SCT070
NOTAMs
Click for the latest NOTAMs
NOTAMs are issued by the DoD/FAA and will open in a separate window not controlled by AirNav.

 

 
 

Would you like to see your business listed on this page?

 If your business provides an interesting product or service to pilots, flight crews, aircraft, or users of the Nadeau's Airfield, you should consider listing it here.  To start the listing process, click on the button below
 
Add a business
 

Other Pages about Nadeau's Airfield

Update a link
 
Copyright © AirNav, LLC. All rights reserved. Privacy Policy  Contact